Terminal Aerodrome Forecast
Issued by NWS Boston, MA

Home | Current Version | Previous Version | Text Only | Print | Product List | Glossary On
Versions: 1 2 3 4 5 6 7 8 9 10 11 12 13 14 15 16 17 18 19 20 21
000
FTUS41 KBOX 030542
TAFORH
TAF
KORH 030542Z 0306/0406 27012KT P6SM BKN045
     FM031100 29011G26KT P6SM SCT040
     FM032000 31012G25KT P6SM BKN040
     FM032300 30010G26KT P6SM SCT045
     FM040500 32009KT P6SM FEW200=

USA.gov is the U.S. government's official web portal to all federal, state and local government web resources and services.